Time;durP1;ratioP1;P1;durP2;ratioP2;P2;SDS_P1;SDS_P2;PMS_P1;PMS_P2;Temp;Humidity;BMP_temperature;BMP_pressure;BME280_temperature;BME280_humidity;BME280_pressure;Samples;Min_cycle;Max_cycle;Signal;HPM_P1;HPM_P2
2022/02/02 00:02:06;;;;;;;99.97;52.60;;;;;;;1.12;75.78;100308.05;1821207;78;21456;-75
2022/02/02 00:04:29;;;;;;;116.93;60.33;;;;;;;1.11;75.56;100308.08;1819471;78;21062;-72
2022/02/02 00:07:09;;;;;;;113.72;61.55;;;;;;;1.06;75.82;100308.66;1820935;78;21001;-72
2022/02/02 00:09:30;;;;;;;111.25;61.10;;;;;;;1.07;75.85;100319.38;1819858;78;20891;-72
2022/02/02 00:14:38;;;;;;;119.55;63.02;;;;;;;1.05;75.75;100306.97;1821349;78;20950;-74
2022/02/02 00:16:59;;;;;;;122.80;63.65;;;;;;;1.05;75.75;100301.81;1817764;78;21621;-72
2022/02/02 00:19:36;;;;;;;127.10;64.32;;;;;;;1.03;75.63;100303.13;1820147;78;20841;-72
2022/02/02 00:21:56;;;;;;;94.92;53.90;;;;;;;0.99;75.56;100310.09;1817974;78;21032;-73
2022/02/02 00:24:25;;;;;;;96.95;52.60;;;;;;;0.98;75.84;100300.67;1820490;78;20883;-72
2022/02/02 00:26:54;;;;;;;98.92;54.85;;;;;;;0.96;75.70;100301.15;1820966;78;20941;-73
2022/02/02 00:29:23;;;;;;;100.72;52.27;;;;;;;0.95;75.54;100293.44;1821304;78;21242;-73
2022/02/02 00:32:01;;;;;;;116.37;59.20;;;;;;;0.93;75.51;100291.33;1821115;78;20874;-73
2022/02/02 00:34:24;;;;;;;127.10;63.65;;;;;;;0.91;75.53;100282.36;1819435;78;20908;-73
2022/02/02 00:36:55;;;;;;;140.88;75.22;;;;;;;0.91;75.62;100278.91;1821011;78;20915;-73
2022/02/02 00:39:18;;;;;;;159.87;79.85;;;;;;;0.91;75.71;100275.03;1820296;78;21349;-72
2022/02/02 00:41:45;;;;;;;113.08;60.88;;;;;;;0.93;75.73;100277.97;1821501;78;21109;-71
2022/02/02 00:44:17;;;;;;;92.80;52.70;;;;;;;0.94;75.61;100291.30;1821346;78;20955;-71
2022/02/02 00:46:42;;;;;;;100.02;52.95;;;;;;;0.91;75.43;100281.48;1821219;78;20887;-73
2022/02/02 00:49:09;;;;;;;110.03;61.88;;;;;;;0.85;75.40;100283.80;1821119;78;20931;-73
2022/02/02 00:51:42;;;;;;;97.85;52.45;;;;;;;0.78;75.51;100282.27;1821588;78;20864;-72
2022/02/02 00:54:06;;;;;;;97.85;56.75;;;;;;;0.75;75.71;100276.71;1820516;78;21148;-72
2022/02/02 00:56:33;;;;;;;110.30;58.05;;;;;;;0.74;75.87;100274.19;1821171;78;20966;-73
2022/02/02 00:59:00;;;;;;;106.45;58.90;;;;;;;0.71;75.96;100276.41;1821150;78;20927;-73
2022/02/02 01:01:27;;;;;;;104.17;57.38;;;;;;;0.71;75.95;100263.51;1821324;78;20974;-73
2022/02/02 01:03:54;;;;;;;99.85;53.50;;;;;;;0.75;76.02;100269.42;1821385;78;20939;-75
2022/02/02 01:06:22;;;;;;;89.25;50.30;;;;;;;0.78;76.01;100269.36;1824161;78;22139;-73
2022/02/02 01:19:38;;;;;;;94.72;50.65;;;;;;;0.92;75.78;100249.64;1824818;78;21174;-73
2022/02/02 01:22:16;;;;;;;104.70;55.88;;;;;;;0.89;75.56;100237.66;1824505;78;20899;-73
2022/02/02 01:30:05;;;;;;;104.67;55.03;;;;;;;0.89;76.16;100236.80;1824977;78;21534;-73
2022/02/02 01:32:34;;;;;;;100.85;54.93;;;;;;;0.90;76.05;100243.22;1824747;78;20943;-73
2022/02/02 01:35:01;;;;;;;103.32;56.30;;;;;;;0.87;75.96;100244.60;1824648;78;20893;-70
2022/02/02 01:37:29;;;;;;;115.97;58.30;;;;;;;0.87;76.14;100243.73;1824783;78;20974;-72
2022/02/02 01:40:01;;;;;;;120.87;67.25;;;;;;;0.91;76.25;100238.89;1825035;78;20966;-73
2022/02/02 01:42:30;;;;;;;118.10;67.35;;;;;;;0.93;76.20;100241.83;1824086;78;20947;-74
2022/02/02 01:45:05;;;;;;;108.03;63.02;;;;;;;0.96;76.09;100245.64;1824890;78;21164;-72
2022/02/02 01:47:30;;;;;;;100.20;55.83;;;;;;;0.95;76.01;100245.22;1821916;78;21452;-71
2022/02/02 01:55:05;;;;;;;84.00;46.33;;;;;;;0.91;75.66;100235.02;1825250;78;20899;-69
2022/02/02 02:00:16;;;;;;;88.00;51.77;;;;;;;0.93;75.73;100233.25;1827247;78;24957;-72
2022/02/02 02:02:42;;;;;;;93.47;50.98;;;;;;;0.95;75.84;100225.02;1827451;78;20885;-72
2022/02/02 02:05:09;;;;;;;90.72;50.17;;;;;;;0.99;75.82;100226.64;1824690;78;20935;-71
2022/02/02 02:07:38;;;;;;;92.08;52.55;;;;;;;0.98;75.67;100224.51;1821579;78;20950;-72
2022/02/02 02:10:06;;;;;;;83.87;47.78;;;;;;;0.96;75.49;100216.41;1821415;78;21594;-74
2022/02/02 02:13:40;;;;;;;83.65;45.65;;;;;;;0.94;75.48;100215.15;1821580;78;20880;-75
2022/02/02 02:15:09;;;;;;;90.10;52.95;;;;;;;0.91;75.53;100214.37;1798017;78;21796;-72
2022/02/02 02:17:36;;;;;;;92.42;51.88;;;;;;;0.86;75.78;100204.62;1790919;78;20903;-72
2022/02/02 02:20:04;;;;;;;82.17;43.68;;;;;;;0.90;75.91;100207.08;1816469;78;21425;-75
2022/02/02 02:22:36;;;;;;;67.95;36.50;;;;;;;0.91;76.07;100205.34;1821542;78;21155;-72
2022/02/02 02:25:00;;;;;;;66.05;34.80;;;;;;;0.91;76.29;100208.79;1820774;78;21430;-71
2022/02/02 02:27:29;;;;;;;54.23;31.00;;;;;;;0.88;76.25;100203.69;1821751;78;20967;-73
2022/02/02 02:30:06;;;;;;;57.15;27.13;;;;;;;0.88;76.29;100202.40;1821364;78;20919;-74
2022/02/02 02:35:35;;;;;;;33.23;21.60;;;;;;;0.86;75.70;100196.43;1821365;78;21152;-73
2022/02/02 02:56:47;;;;;;;38.70;22.77;;;;;;;0.61;77.68;100174.31;1821307;78;20955;-73
2022/02/02 02:59:19;;;;;;;41.40;22.80;;;;;;;0.60;77.96;100176.05;1821722;78;20899;-74
2022/02/02 03:35:08;;;;;;;36.38;20.85;;;;;;;0.55;79.70;100164.98;1824738;78;20978;-72
2022/02/02 03:51:10;;;;;;;43.13;24.82;;;;;;;0.45;80.31;100156.25;1824846;78;20982;-73
2022/02/02 04:01:33;;;;;;;37.98;20.45;;;;;;;0.45;80.43;100160.13;1825158;78;20955;-73
2022/02/02 04:04:07;;;;;;;40.38;21.45;;;;;;;0.49;80.66;100154.84;1821599;78;20931;-73
2022/02/02 04:06:24;;;;;;;37.38;20.68;;;;;;;0.52;80.43;100153.46;1821651;78;20848;-73
2022/02/02 04:08:50;;;;;;;37.80;22.10;;;;;;;0.56;80.56;100150.38;1824788;78;21277;-74
2022/02/02 04:11:30;;;;;;;33.48;20.52;;;;;;;0.59;80.58;100156.73;1825052;78;20958;-73
2022/02/02 04:17:11;;;;;;;34.85;19.92;;;;;;;0.61;80.41;100153.22;1825036;77;20942;-72
2022/02/02 04:38:29;;;;;;;40.63;22.35;;;;;;;0.59;80.17;100145.95;1824971;78;21436;-72
2022/02/02 04:54:21;;;;;;;38.67;20.32;;;;;;;0.92;80.47;100159.29;1824614;77;20915;-72
2022/02/02 04:59:39;;;;;;;34.63;22.42;;;;;;;0.97;80.21;100158.26;1825237;77;20876;-74
2022/02/02 05:05:21;;;;;;;46.18;27.25;;;;;;;0.87;79.99;100166.30;1824842;78;21481;-73
2022/02/02 05:07:31;;;;;;;45.92;26.85;;;;;;;0.91;80.22;100162.74;1820743;77;20911;-72
2022/02/02 05:10:07;;;;;;;45.65;27.15;;;;;;;0.90;80.07;100159.32;1823434;78;20974;-73
2022/02/02 05:53:21;;;;;;;32.03;20.23;;;;;;;0.71;80.33;100182.64;1791799;79;20895;-75
2022/02/02 05:55:48;;;;;;;36.08;21.27;;;;;;;0.77;80.76;100174.29;1792552;79;21135;-74
2022/02/02 05:58:15;;;;;;;36.35;21.68;;;;;;;0.85;80.77;100177.97;1793192;79;20883;-75
2022/02/02 06:00:43;;;;;;;34.05;22.07;;;;;;;0.88;80.32;100180.45;1792356;79;20935;-76
2022/02/02 06:03:14;;;;;;;37.23;23.07;;;;;;;0.89;80.25;100176.13;1791691;79;20935;-74
2022/02/02 06:05:42;;;;;;;39.27;23.90;;;;;;;0.94;80.28;100176.88;1792353;79;21481;-72
2022/02/02 06:08:12;;;;;;;37.90;22.48;;;;;;;1.00;80.25;100177.97;1789009;79;21151;-73
2022/02/02 06:10:40;;;;;;;38.88;23.12;;;;;;;1.02;79.98;100167.16;1788906;79;20927;-73
2022/02/02 06:13:08;;;;;;;40.95;23.80;;;;;;;1.03;79.63;100174.03;1789244;79;20927;-72
2022/02/02 06:15:35;;;;;;;38.10;22.37;;;;;;;1.01;79.61;100174.52;1788930;80;20928;-73
2022/02/02 06:18:03;;;;;;;40.52;23.55;;;;;;;0.99;79.39;100171.12;1789012;80;21408;-75
2022/02/02 06:20:31;;;;;;;34.75;22.13;;;;;;;0.92;79.27;100165.30;1789295;79;21387;-74
2022/02/02 06:23:15;;;;;;;40.52;22.22;;;;;;;0.86;79.47;100156.42;1788881;80;20986;-73
2022/02/02 06:25:46;;;;;;;;;;;;;;;0.82;79.44;100156.97;1791709;79;21472;-74
2022/02/02 06:28:23;;;;;;;40.65;21.60;;;;;;;0.79;79.61;100153.16;1788960;79;20075;-75
2022/02/02 06:30:58;;;;;;;34.70;21.73;;;;;;;0.79;79.74;100148.45;1789063;80;20919;-74
2022/02/02 06:33:30;;;;;;;38.33;22.20;;;;;;;0.81;79.85;100148.80;1784812;79;21184;-74
2022/02/02 06:35:56;;;;;;;37.53;22.45;;;;;;;0.82;79.87;100150.52;1788450;80;20884;-75
2022/02/02 06:38:23;;;;;;;33.85;21.27;;;;;;;0.84;79.90;100153.03;1789140;80;21365;-73
2022/02/02 06:40:51;;;;;;;36.03;22.42;;;;;;;0.88;80.09;100156.39;1788934;80;21361;-73
2022/02/02 06:43:19;;;;;;;39.38;24.15;;;;;;;0.90;80.05;100151.58;1788988;80;20923;-74
2022/02/02 06:45:46;;;;;;;36.38;23.38;;;;;;;0.95;80.05;100154.03;1789243;80;21573;-73
2022/02/02 06:48:13;;;;;;;41.28;22.93;;;;;;;1.01;79.91;100153.86;1789264;79;20919;-73
2022/02/02 06:50:43;;;;;;;41.10;22.60;;;;;;;1.05;79.73;100147.73;1789039;79;20915;-75
2022/02/02 06:53:35;;;;;;;33.70;22.90;;;;;;;1.05;79.35;100142.56;1788894;80;20931;-74
2022/02/02 06:56:25;;;;;;;40.90;21.93;;;;;;;1.03;79.40;100133.56;1787487;80;21000;-74
2022/02/02 07:01:57;;;;;;;39.38;23.75;;;;;;;1.17;79.61;100142.65;1789097;80;21452;-73
2022/02/02 07:04:45;;;;;;;35.05;23.42;;;;;;;1.22;79.35;100149.39;1786800;80;20875;-74
2022/02/02 07:07:11;;;;;;;41.37;24.82;;;;;;;1.27;79.31;100151.83;1790185;79;20947;-74
2022/02/02 07:09:49;;;;;;;57.00;26.80;;;;;;;1.33;79.22;100158.54;1791807;80;20931;-74
2022/02/02 07:12:10;;;;;;;45.90;26.10;;;;;;;1.39;78.65;100157.08;1790690;79;21160;-73
2022/02/02 07:22:21;;;;;;;47.15;26.45;;;;;;;1.32;78.25;100157.70;1794835;80;21381;-72
2022/02/02 07:30:09;;;;;;;61.75;32.28;;;;;;;1.36;78.39;100159.77;1794858;79;20859;-73
2022/02/02 07:32:40;;;;;;;63.15;33.73;;;;;;;1.40;78.67;100163.92;1793662;80;20951;-74
2022/02/02 07:35:29;;;;;;;59.48;29.40;;;;;;;1.48;78.77;100167.58;1792899;79;20871;-74
2022/02/02 07:38:11;;;;;;;51.70;29.30;;;;;;;1.54;78.50;100172.58;1793643;79;21192;-75
2022/02/02 07:40:42;;;;;;;46.60;27.95;;;;;;;1.59;78.36;100174.11;1793481;79;20970;-75
2022/02/02 07:43:28;;;;;;;53.17;29.00;;;;;;;1.64;78.01;100177.39;1794597;79;20930;-73
2022/02/02 07:46:04;;;;;;;44.95;26.85;;;;;;;1.60;77.78;100169.78;1794542;79;20974;-75
2022/02/02 07:48:38;;;;;;;45.90;25.60;;;;;;;1.59;77.88;100162.94;1794955;79;21396;-73
2022/02/02 07:51:05;;;;;;;45.30;25.45;;;;;;;1.56;77.82;100164.33;1794559;80;21806;-73
2022/02/02 07:53:43;;;;;;;46.37;25.48;;;;;;;1.55;78.03;100158.75;1794409;79;20982;-72
2022/02/02 07:56:16;;;;;;;49.13;23.55;;;;;;;1.58;78.25;100159.52;1794066;79;20959;-73
2022/02/02 07:58:45;;;;;;;39.25;24.37;;;;;;;1.66;78.08;100160.55;1794569;79;20911;-74
2022/02/02 08:01:12;;;;;;;36.35;23.32;;;;;;;1.69;77.94;100160.91;1794765;79;20881;-73
2022/02/02 08:03:42;;;;;;;34.33;23.05;;;;;;;1.71;77.73;100156.53;1794538;80;21208;-73
2022/02/02 08:06:09;;;;;;;45.98;24.30;;;;;;;1.73;77.72;100162.51;1794499;79;21429;-73
2022/02/02 08:08:37;;;;;;;39.90;23.87;;;;;;;1.74;77.63;100162.47;1794438;79;20915;-73
2022/02/02 08:11:08;;;;;;;37.98;24.23;;;;;;;1.79;77.84;100166.20;1794878;80;21118;-74
2022/02/02 08:13:43;;;;;;;37.10;24.72;;;;;;;1.90;77.91;100171.88;1794551;80;20891;-73
2022/02/02 08:16:13;;;;;;;41.05;25.50;;;;;;;2.02;77.82;100168.92;1794509;79;21981;-73
2022/02/02 08:18:41;;;;;;;47.80;28.12;;;;;;;2.14;77.38;100170.70;1794424;79;20887;-72
2022/02/02 08:21:07;;;;;;;55.88;27.37;;;;;;;2.19;76.98;100165.77;1795032;79;21420;-72
2022/02/02 08:23:34;;;;;;;44.50;29.07;;;;;;;2.19;76.77;100162.34;1794513;79;20968;-72
2022/02/02 08:26:05;;;;;;;47.15;28.83;;;;;;;2.18;76.44;100159.34;1794908;79;20911;-74
2022/02/02 08:28:31;;;;;;;44.63;27.77;;;;;;;2.16;76.30;100162.45;1794555;79;21115;-74
2022/02/02 08:30:57;;;;;;;47.43;28.35;;;;;;;2.12;76.22;100168.61;1794851;79;20903;-73
2022/02/02 08:33:28;;;;;;;55.78;30.97;;;;;;;2.11;76.21;100165.61;1794511;80;20970;-72
2022/02/02 08:35:55;;;;;;;53.33;28.87;;;;;;;2.08;76.19;100161.39;1794184;80;20891;-72
2022/02/02 08:41:02;;;;;;;50.83;30.45;;;;;;;2.08;76.21;100150.59;1794916;80;21855;-72
2022/02/02 08:43:28;;;;;;;54.75;33.58;;;;;;;2.09;76.40;100148.87;1792652;80;20895;-73
2022/02/02 08:45:56;;;;;;;58.75;35.58;;;;;;;2.13;76.35;100141.39;1793808;79;20907;-77
2022/02/02 08:48:26;;;;;;;61.65;34.85;;;;;;;2.20;76.16;100137.73;1797453;79;20868;-76
2022/02/02 08:51:01;;;;;;;63.85;34.92;;;;;;;2.23;75.88;100140.66;1797961;79;20844;-77
2022/02/02 08:58:30;;;;;;;57.30;29.37;;;;;;;2.18;75.40;100129.59;1795170;80;21360;-78
2022/02/02 09:00:53;;;;;;;51.65;30.08;;;;;;;2.17;75.37;100111.94;1792906;80;20923;-76
2022/02/02 09:06:05;;;;;;;46.88;28.15;;;;;;;2.25;75.52;100112.54;1794560;79;21175;-77
2022/02/02 09:08:33;;;;;;;58.50;33.60;;;;;;;2.34;75.36;100110.09;1790428;80;20880;-75
2022/02/02 09:24:35;;;;;;;68.28;41.48;;;;;;;2.92;74.47;100089.50;1827645;77;20860;-74
2022/02/02 09:33:00;;;;;;;73.35;43.10;;;;;;;3.22;73.34;100084.44;1773975;80;20936;-74
2022/02/02 09:35:10;;;;;;;78.37;44.63;;;;;;;3.29;73.04;100085.05;1781435;79;20959;-74
2022/02/02 09:37:38;;;;;;;75.50;45.88;;;;;;;3.35;72.77;100082.69;1785974;79;21486;-74
2022/02/02 09:42:47;;;;;;;69.65;40.83;;;;;;;3.45;72.70;100080.14;1785593;80;20982;-72
2022/02/02 09:45:17;;;;;;;67.00;41.15;;;;;;;3.54;72.51;100073.29;1756685;80;21480;-73
2022/02/02 09:47:54;;;;;;;60.85;36.63;;;;;;;3.63;72.39;100073.38;1785777;79;20928;-74
2022/02/02 09:50:21;;;;;;;55.92;36.75;;;;;;;3.71;72.00;100068.70;1784015;79;20847;-74
2022/02/02 09:52:50;;;;;;;55.52;35.35;;;;;;;3.76;71.76;100064.20;1784214;79;21034;-78
2022/02/02 09:55:32;;;;;;;52.60;34.80;;;;;;;3.80;71.53;100064.89;1784143;80;21307;-75
2022/02/02 09:58:07;;;;;;;52.80;33.48;;;;;;;3.82;71.58;100058.73;1782451;79;20895;-77
2022/02/02 10:03:23;;;;;;;47.58;31.10;;;;;;;3.78;71.09;100045.53;1724028;83;20971;-76
2022/02/02 10:05:53;;;;;;;53.80;32.03;;;;;;;3.76;71.45;100046.05;1722132;83;21184;-72
2022/02/02 10:15:59;;;;;;;50.52;31.75;;;;;;;3.98;71.77;100021.78;1673963;85;21073;-75
2022/02/02 10:18:35;;;;;;;52.17;32.45;;;;;;;4.03;71.15;100010.31;1671722;84;21362;-73
2022/02/02 10:21:03;;;;;;;49.42;31.07;;;;;;;3.99;70.78;100009.22;1674737;83;21380;-73
2022/02/02 10:23:33;;;;;;;51.75;32.75;;;;;;;3.89;70.94;100013.50;1657942;85;21429;-73
2022/02/02 10:26:16;;;;;;;48.65;30.25;;;;;;;3.85;71.24;100006.76;1629073;86;21529;-72
2022/02/02 10:28:44;;;;;;;46.48;27.48;;;;;;;3.80;71.29;99999.63;1629560;86;20927;-73
2022/02/02 10:31:13;;;;;;;41.65;25.85;;;;;;;3.75;71.32;99998.96;1640181;86;21603;-74
2022/02/02 10:33:41;;;;;;;35.52;25.75;;;;;;;3.66;71.31;100009.26;1657281;85;20987;-73
2022/02/02 10:38:49;;;;;;;39.53;26.82;;;;;;;3.56;71.80;100005.38;1654518;85;20967;-72
2022/02/02 10:41:28;;;;;;;42.13;27.85;;;;;;;3.56;71.59;99999.33;1669780;84;20981;-73
2022/02/02 10:43:58;;;;;;;36.85;25.85;;;;;;;3.53;71.61;100004.19;1712647;82;21149;-80
2022/02/02 10:49:03;;;;;;;43.50;28.38;;;;;;;3.34;71.91;99995.50;1666106;84;20941;-79
2022/02/02 10:51:36;;;;;;;44.90;31.37;;;;;;;3.32;72.24;99987.77;1714354;83;20976;-80
2022/02/02 10:54:10;;;;;;;41.68;29.25;;;;;;;3.35;72.50;99979.03;1729114;82;21431;-80
2022/02/02 10:56:42;;;;;;;40.90;30.30;;;;;;;3.40;72.49;99971.90;1760718;80;21733;-80
2022/02/02 11:06:56;;;;;;;;;;;;;;;3.52;72.45;99965.77;1764863;81;21530;-79
2022/02/02 11:09:23;;;;;;;37.83;25.55;;;;;;;3.57;72.43;99962.14;1733504;82;21241;-81
2022/02/02 11:11:55;;;;;;;35.28;24.30;;;;;;;3.64;72.47;99970.05;1762152;81;21536;-80
2022/02/02 11:14:46;;;;;;;39.65;25.12;;;;;;;3.72;72.33;99974.47;1733707;82;21004;-79
2022/02/02 11:17:40;;;;;;;43.68;25.97;;;;;;;3.81;72.44;99966.30;1732916;81;20904;-76
2022/02/02 11:20:08;;;;;;;43.98;26.62;;;;;;;3.93;72.12;99974.86;1761715;80;21154;-79
2022/02/02 11:22:38;;;;;;;56.15;34.33;;;;;;;4.01;71.90;99968.03;1777389;80;21162;-82
2022/02/02 11:25:13;;;;;;;43.38;29.48;;;;;;;4.09;71.65;99965.09;1751991;80;21069;-78
2022/02/02 11:27:45;;;;;;;48.70;33.42;;;;;;;4.12;71.45;99961.08;1778301;80;20955;-81
2022/02/02 11:30:30;;;;;;;59.73;35.58;;;;;;;4.09;71.47;99959.90;1777678;80;20853;-82
2022/02/02 11:32:59;;;;;;;69.25;41.15;;;;;;;4.11;71.30;99958.08;1777125;80;21175;-79
2022/02/02 11:38:07;;;;;;;67.72;42.35;;;;;;;4.02;71.22;99955.89;1777112;80;20975;-80
2022/02/02 11:40:42;;;;;;;55.17;38.40;;;;;;;3.93;71.47;99946.76;1777232;80;20960;-77
2022/02/02 11:43:14;;;;;;;60.63;38.78;;;;;;;3.91;71.60;99945.55;1775808;80;20896;-76
2022/02/02 11:45:54;;;;;;;59.20;38.13;;;;;;;3.94;71.86;99945.86;1775851;80;20924;-76
2022/02/02 11:48:57;;;;;;;55.08;33.65;;;;;;;4.02;71.77;99943.76;1777355;80;21800;-75
2022/02/02 11:51:53;;;;;;;53.65;33.67;;;;;;;4.07;71.70;99948.31;1777468;80;20924;-77
2022/02/02 11:54:45;;;;;;;51.83;33.65;;;;;;;4.12;71.62;99948.11;1777265;80;20860;-77
2022/02/02 11:57:21;;;;;;;59.58;36.15;;;;;;;4.17;71.69;99946.60;1777629;80;20932;-77
2022/02/02 12:00:13;;;;;;;59.83;37.58;;;;;;;4.17;71.65;99942.71;1777303;80;20944;-76
2022/02/02 12:03:17;;;;;;;52.83;34.10;;;;;;;4.22;71.82;99949.36;1777306;80;21777;-78
2022/02/02 12:47:23;;;;;;;62.27;40.43;;;;;;;4.28;72.11;99969.02;1777049;80;20971;-76
2022/02/02 12:57:44;;;;;;;68.55;42.17;;;;;;;4.14;72.90;99965.29;1777826;80;21072;-77
2022/02/02 13:00:14;;;;;;;71.62;43.17;;;;;;;4.07;73.05;99964.31;1777537;80;21034;-78
2022/02/02 13:02:42;;;;;;;68.67;41.58;;;;;;;4.00;73.24;99959.01;1778360;80;20931;-77
2022/02/02 13:05:10;;;;;;;73.45;40.73;;;;;;;3.95;73.44;99953.56;1778529;80;20947;-77
2022/02/02 13:07:37;;;;;;;69.15;43.52;;;;;;;3.91;73.37;99961.11;1777278;80;20877;-77
2022/02/02 13:10:06;;;;;;;65.80;42.70;;;;;;;3.87;73.55;99957.42;1777061;80;21148;-76
2022/02/02 13:15:33;;;;;;;71.40;44.25;;;;;;;3.90;73.98;99962.00;1777454;80;21354;-79
2022/02/02 13:18:34;;;;;;;75.55;43.35;;;;;;;3.97;74.09;99957.85;1777715;80;21163;-83
2022/02/02 13:21:12;;;;;;;72.90;44.15;;;;;;;3.98;74.10;99957.80;1775348;80;20896;-73
2022/02/02 13:24:03;;;;;;;75.52;46.25;;;;;;;4.02;74.20;99954.59;1752120;80;21106;-71
2022/02/02 13:26:39;;;;;;;82.85;47.80;;;;;;;4.06;74.49;99949.20;1776256;80;20927;-72
2022/02/02 13:29:15;;;;;;;82.45;46.35;;;;;;;4.17;74.36;99955.22;1776587;80;20869;-71
2022/02/02 13:37:45;;;;;;;92.50;56.48;;;;;;;4.13;73.92;99953.20;1777219;80;21053;-73
2022/02/02 13:46:16;;;;;;;83.75;51.85;;;;;;;3.93;74.14;99950.65;1753211;80;20944;-75
2022/02/02 13:51:08;;;;;;;81.72;50.33;;;;;;;3.89;74.57;99949.09;1777597;80;21018;-73
2022/02/02 14:04:07;;;;;;;73.40;44.80;;;;;;;3.99;74.94;99957.34;1776902;80;21152;-71
2022/02/02 14:33:33;;;;;;;63.20;38.78;;;;;;;3.72;75.20;99943.35;1773789;80;20936;-73
2022/02/02 14:36:03;;;;;;;64.58;39.78;;;;;;;3.62;75.28;99948.06;1773965;81;20932;-73
2022/02/02 14:38:36;;;;;;;66.02;38.28;;;;;;;3.50;75.47;99943.41;1773799;81;20913;-72
2022/02/02 14:41:08;;;;;;;61.18;38.78;;;;;;;3.41;75.80;99945.09;1772824;80;20940;-75
2022/02/02 14:43:44;;;;;;;63.25;37.83;;;;;;;3.32;76.11;99950.20;1744919;81;21157;-73
2022/02/02 14:45:58;;;;;;;60.45;37.83;;;;;;;3.24;76.26;99947.90;1769090;80;20960;-71
2022/02/02 14:48:32;;;;;;;64.62;36.63;;;;;;;3.15;76.50;99944.85;1773650;81;20880;-74
2022/02/02 15:27:59;;;;;;;87.02;54.48;;;;;;;2.89;78.15;99968.30;1773851;81;21375;-72
2022/02/02 15:30:31;;;;;;;94.58;60.00;;;;;;;2.88;78.24;99970.48;1773343;80;20865;-73
2022/02/02 15:33:00;;;;;;;94.35;59.77;;;;;;;2.86;78.45;99972.74;1773308;81;20888;-75
2022/02/02 15:35:30;;;;;;;98.10;63.55;;;;;;;2.85;78.65;99969.77;1773668;81;21097;-72
2022/02/02 15:38:02;;;;;;;112.57;67.20;;;;;;;2.85;78.83;99972.36;1746093;81;20983;-73
2022/02/02 15:40:40;;;;;;;108.42;69.62;;;;;;;2.87;78.93;99971.86;1773458;81;21008;-73
2022/02/02 15:58:43;;;;;;;58.78;34.40;;;;;;;3.04;78.38;99990.14;1777707;80;21096;-76
2022/02/02 16:03:57;;;;;;;53.28;34.33;;;;;;;3.04;78.09;99982.83;1777023;81;21431;-81
2022/02/02 16:06:28;;;;;;;67.27;37.45;;;;;;;3.05;77.84;99983.24;1774292;81;20897;-78
2022/02/02 16:09:15;;;;;;;52.00;35.17;;;;;;;3.05;77.76;99980.19;1773882;81;21426;-76
2022/02/02 16:11:31;;;;;;;57.88;35.45;;;;;;;3.06;77.74;99981.86;1771690;81;20900;-82
2022/02/02 16:14:04;;;;;;;65.05;37.17;;;;;;;3.07;77.47;99987.45;1774039;81;21081;-82
2022/02/02 16:19:07;;;;;;;58.60;36.23;;;;;;;2.95;77.09;99988.38;1774354;81;21003;-80
2022/02/02 16:37:35;;;;;;;68.42;42.45;;;;;;;2.88;77.76;99995.08;1773899;81;20944;-77
2022/02/02 16:40:01;;;;;;;74.30;44.27;;;;;;;2.89;78.10;99996.78;1773594;81;21171;-79
2022/02/02 16:45:14;;;;;;;73.10;48.90;;;;;;;2.93;78.07;99994.06;1773851;81;20922;-76
2022/02/02 16:47:41;;;;;;;87.85;49.48;;;;;;;2.92;78.15;99988.50;1773970;81;20900;-77
2022/02/02 16:50:13;;;;;;;79.75;48.98;;;;;;;2.90;78.35;99991.14;1774254;81;20936;-77
2022/02/02 16:52:40;;;;;;;74.53;47.00;;;;;;;2.92;78.45;99988.50;1773793;80;21875;-77
2022/02/02 16:55:09;;;;;;;71.35;45.75;;;;;;;2.94;78.35;99991.42;1773922;80;21596;-77
2022/02/02 16:57:52;;;;;;;66.65;40.95;;;;;;;2.94;78.25;99994.47;1774169;80;20904;-75
2022/02/02 17:29:03;;;;;;;78.12;49.42;;;;;;;2.96;78.12;99997.81;1777962;80;20864;-78
2022/02/02 17:33:00;;;;;;;68.57;41.90;;;;;;;2.95;78.42;99991.80;1777005;80;21983;-78
2022/02/02 17:36:17;;;;;;;72.58;45.48;;;;;;;2.97;78.46;99993.88;1776371;80;20998;-83
2022/02/02 17:38:03;;;;;;;72.90;44.70;;;;;;;3.00;78.44;99991.20;1765332;80;21346;-82
2022/02/02 17:40:47;;;;;;;72.30;45.40;;;;;;;2.99;78.36;99983.02;1775506;80;21415;-82
2022/02/02 17:43:16;;;;;;;76.55;50.10;;;;;;;3.01;78.29;99981.67;1773716;80;20888;-81
2022/02/02 17:45:47;;;;;;;68.70;45.00;;;;;;;3.00;78.25;99977.38;1774586;80;21161;-82
2022/02/02 17:56:24;;;;;;;72.17;44.73;;;;;;;3.00;78.07;99974.36;1777555;80;20928;-81
2022/02/02 18:20:54;;;;;;;109.97;65.75;;;;;;;2.80;78.83;99979.02;1749333;80;20968;-78
2022/02/02 18:23:29;;;;;;;119.57;69.45;;;;;;;2.79;78.84;99977.31;1777160;80;21426;-76
2022/02/02 18:26:02;;;;;;;96.75;58.80;;;;;;;2.79;78.94;99976.48;1776297;80;21089;-74
2022/02/02 18:28:34;;;;;;;103.20;61.10;;;;;;;2.77;79.08;99972.64;1775155;80;20991;-76
2022/02/02 18:36:28;;;;;;;104.78;60.80;;;;;;;2.80;79.37;99971.67;1777169;80;20928;-76
2022/02/02 18:42:06;;;;;;;92.08;60.05;;;;;;;2.85;79.49;99972.36;1777884;80;20916;-77
2022/02/02 18:54:59;;;;;;;85.50;53.98;;;;;;;3.01;78.84;99960.95;1777073;80;20900;-77
2022/02/02 18:57:38;;;;;;;92.88;57.58;;;;;;;2.99;78.68;99964.88;1776595;80;21553;-73
2022/02/02 19:00:16;;;;;;;95.07;60.67;;;;;;;2.95;78.62;99963.31;1774068;80;20916;-76
2022/02/02 19:03:05;;;;;;;91.05;60.85;;;;;;;2.89;78.63;99960.53;1774960;80;20941;-76
2022/02/02 20:05:48;;;;;;;196.05;110.57;;;;;;;2.94;79.67;99969.41;1778240;80;21046;-78
2022/02/02 20:08:25;;;;;;;195.50;105.72;;;;;;;2.95;79.55;99969.79;1775776;80;20896;-76
2022/02/02 20:11:02;;;;;;;190.70;109.20;;;;;;;2.93;79.43;99967.70;1776271;80;20893;-77
2022/02/02 20:13:19;;;;;;;199.07;105.27;;;;;;;2.89;79.13;99963.55;1775211;80;21560;-78
2022/02/02 20:15:45;;;;;;;160.10;90.75;;;;;;;2.82;79.05;99974.59;1777321;80;20869;-78
2022/02/02 20:18:13;;;;;;;110.03;63.17;;;;;;;2.77;79.33;99967.46;1777184;80;21410;-73
2022/02/02 20:20:45;;;;;;;136.18;79.42;;;;;;;2.73;79.35;99968.48;1777169;80;20928;-76
2022/02/02 20:23:13;;;;;;;105.83;62.17;;;;;;;2.70;79.44;99973.33;1776359;80;21469;-76
2022/02/02 20:25:46;;;;;;;109.12;62.75;;;;;;;2.64;79.60;99977.43;1773749;81;22438;-77
2022/02/02 20:28:11;;;;;;;98.35;52.53;;;;;;;2.67;80.02;99980.38;1772701;81;21458;-76
2022/02/02 20:30:38;;;;;;;110.25;66.42;;;;;;;2.72;80.21;99988.81;1773642;80;21926;-79
2022/02/02 20:33:07;;;;;;;112.03;65.12;;;;;;;2.74;80.03;99992.64;1773936;81;21046;-79
2022/02/02 20:35:35;;;;;;;101.78;57.48;;;;;;;2.76;80.08;99994.70;1773723;81;20896;-76
2022/02/02 20:38:04;;;;;;;97.42;56.42;;;;;;;2.78;80.14;99993.77;1773870;80;21150;-76
2022/02/02 20:40:33;;;;;;;105.43;61.80;;;;;;;2.82;80.09;99994.02;1772287;80;20888;-77
2022/02/02 20:43:10;;;;;;;100.27;60.98;;;;;;;2.84;80.03;99989.62;1773879;80;20952;-79
2022/02/02 21:05:07;;;;;;;115.25;69.95;;;;;;;2.81;79.56;99998.81;1773855;81;21165;-75
2022/02/02 21:07:34;;;;;;;121.62;70.52;;;;;;;2.80;79.45;100002.75;1770528;81;20920;-75
2022/02/02 21:10:18;;;;;;;;;;;;;;;2.77;79.71;99993.35;1775291;80;21449;-75
2022/02/02 21:15:14;;;;;;;142.07;88.80;;;;;;;2.85;79.87;99993.91;1773155;80;21426;-76
2022/02/02 21:17:40;;;;;;;141.65;90.90;;;;;;;2.89;79.87;100005.84;1773847;81;21165;-75
2022/02/02 21:20:14;;;;;;;118.47;70.22;;;;;;;2.88;79.46;100002.02;1774584;81;21461;-75
2022/02/02 21:22:47;;;;;;;153.68;91.50;;;;;;;2.88;79.67;100006.73;1773036;80;20868;-76
2022/02/02 21:25:13;;;;;;;172.75;106.80;;;;;;;2.89;79.60;100009.73;1771235;80;20908;-74
2022/02/02 21:27:40;;;;;;;159.65;95.22;;;;;;;2.91;79.73;100017.42;1772676;81;20893;-75
2022/02/02 21:30:09;;;;;;;146.72;91.35;;;;;;;2.93;79.56;100013.48;1773982;81;21433;-76
2022/02/02 21:32:37;;;;;;;138.50;89.37;;;;;;;2.87;79.06;100021.05;1773732;81;20904;-76
2022/02/02 21:35:07;;;;;;;136.07;87.45;;;;;;;2.83;79.02;100018.19;1773424;81;20869;-76
2022/02/02 21:40:54;;;;;;;141.43;88.72;;;;;;;2.67;78.85;100014.88;1757560;81;20877;-76
2022/02/02 21:43:21;;;;;;;157.25;98.75;;;;;;;2.64;79.16;100018.02;1758322;81;21215;-74